createdAt,value
2023-05-20T00:03:00.208Z,101495.44
2023-05-20T00:08:04.665Z,101488.92
2023-05-20T00:13:06.703Z,101484.30
2023-05-20T00:18:08.413Z,101482.77
2023-05-20T00:23:10.278Z,101481.60
2023-05-20T00:28:11.833Z,101482.63
2023-05-20T00:33:13.508Z,101483.51
2023-05-20T00:38:15.140Z,101482.14
2023-05-20T00:43:16.711Z,101477.46
2023-05-20T00:48:18.252Z,101479.88
2023-05-20T00:53:21.257Z,101482.66
2023-05-20T00:58:23.172Z,101475.92
2023-05-20T01:03:25.762Z,101479.20
2023-05-20T01:08:28.670Z,101475.42
2023-05-20T01:13:37.049Z,101472.34
2023-05-20T01:18:39.572Z,101470.36
2023-05-20T01:23:42.287Z,101472.52
2023-05-20T01:28:43.961Z,101476.84
2023-05-20T01:33:49.211Z,101479.95
2023-05-20T01:38:51.506Z,101477.20
2023-05-20T01:43:53.686Z,101478.61
2023-05-20T01:48:55.225Z,101484.02
2023-05-20T01:53:56.771Z,101486.31
2023-05-20T01:58:58.384Z,101487.56
2023-05-20T02:03:59.950Z,101483.63
2023-05-20T02:09:01.571Z,101477.45
2023-05-20T02:14:03.131Z,101479.54
2023-05-20T02:19:04.710Z,101476.44
2023-05-20T02:24:07.694Z,101471.77
2023-05-20T02:29:09.259Z,101469.15
2023-05-20T02:34:10.848Z,101467.91
2023-05-20T02:39:12.746Z,101466.00
2023-05-20T02:44:14.608Z,101472.58
2023-05-20T02:49:16.304Z,101475.18
2023-05-20T02:54:17.867Z,101477.48
2023-05-20T02:59:19.728Z,101474.57
2023-05-20T03:04:21.923Z,101476.60
2023-05-20T03:09:25.298Z,101478.32
2023-05-20T03:14:26.980Z,101474.84
2023-05-20T03:19:28.529Z,101479.15
2023-05-20T03:24:30.200Z,101484.85
2023-05-20T03:29:31.783Z,101485.40
2023-05-20T03:34:33.533Z,101482.47
2023-05-20T03:39:35.520Z,101480.17
2023-05-20T03:44:37.105Z,101489.11
2023-05-20T03:49:40.515Z,101490.13
2023-05-20T03:54:42.059Z,101490.75
2023-05-20T03:59:43.585Z,101486.20
2023-05-20T04:04:45.228Z,101485.46
2023-05-20T04:09:46.845Z,101488.08
2023-05-20T04:14:50.080Z,101485.52
2023-05-20T04:19:51.718Z,101486.11
2023-05-20T04:24:53.334Z,101492.05
2023-05-20T04:29:55.120Z,101489.16
2023-05-20T04:34:57.501Z,101484.55
2023-05-20T04:39:59.156Z,101483.54
2023-05-20T04:45:05.839Z,101477.50
2023-05-20T04:50:12.014Z,101470.40
2023-05-20T04:55:15.449Z,101464.48
2023-05-20T05:00:18.993Z,101466.96
2023-05-20T05:05:20.682Z,101471.11
2023-05-20T05:10:23.523Z,101474.33
2023-05-20T05:15:25.675Z,101477.27
2023-05-20T05:20:27.473Z,101478.54
2023-05-20T05:25:29.106Z,101483.02
2023-05-20T05:30:37.143Z,101484.94
2023-05-20T05:35:38.661Z,101481.55
2023-05-20T05:40:40.331Z,101486.77
2023-05-20T05:45:43.289Z,101482.13
2023-05-20T05:50:47.779Z,101480.59
2023-05-20T05:55:49.419Z,101482.85
2023-05-20T06:00:54.944Z,101486.10
2023-05-20T06:05:56.640Z,101483.80
2023-05-20T06:10:58.174Z,101481.80
2023-05-20T06:15:59.714Z,101484.02
2023-05-20T06:21:01.312Z,101484.25
2023-05-20T06:26:03.609Z,101484.66
2023-05-20T06:31:06.350Z,101484.86
2023-05-20T06:36:07.930Z,101481.57
2023-05-20T06:41:09.670Z,101479.66
2023-05-20T06:46:11.287Z,101473.88
2023-05-20T06:51:13.069Z,101468.70
2023-05-20T06:56:14.771Z,101467.14
2023-05-20T07:01:18.147Z,101471.30
2023-05-20T07:06:20.220Z,101466.98
2023-05-20T07:11:21.973Z,101468.88
2023-05-20T07:16:23.663Z,101466.47
2023-05-20T07:21:25.463Z,101463.73
2023-05-20T07:26:27.261Z,101463.70
2023-05-20T07:31:28.830Z,101458.52
2023-05-20T07:36:31.048Z,101454.96
2023-05-20T07:41:32.793Z,101447.70
2023-05-20T07:46:35.098Z,101444.17
2023-05-20T07:51:36.972Z,101440.41
2023-05-20T07:56:38.648Z,101440.11
2023-05-20T08:01:42.439Z,101437.98
2023-05-20T08:06:44.655Z,101436.09
2023-05-20T08:11:47.472Z,101439.55
2023-05-20T08:16:49.864Z,101433.94
2023-05-20T08:21:53.515Z,101435.02
2023-05-20T08:26:55.046Z,101434.28
2023-05-20T08:31:57.133Z,101433.36
2023-05-20T08:36:58.660Z,101429.52
2023-05-20T08:42:00.324Z,101427.18
2023-05-20T08:47:03.945Z,101427.44
2023-05-20T08:52:06.763Z,101425.66
2023-05-20T08:57:08.483Z,101427.84
2023-05-20T09:02:11.614Z,101421.68
2023-05-20T09:07:13.383Z,101421.74
2023-05-20T09:12:14.961Z,101422.47
2023-05-20T09:17:20.901Z,101416.48
2023-05-20T09:22:27.287Z,101409.63
2023-05-20T09:27:28.808Z,101402.92
2023-05-20T09:32:30.659Z,101402.06
2023-05-20T09:37:34.946Z,101399.90
2023-05-20T09:42:50.819Z,101395.45
2023-05-20T09:47:53.879Z,101393.38
2023-05-20T09:52:56.164Z,101395.56
2023-05-20T09:57:58.888Z,101390.38
2023-05-20T10:03:01.232Z,101387.44
2023-05-20T10:08:18.900Z,101387.58
2023-05-20T10:13:59.124Z,101381.95
2023-05-20T10:19:18.954Z,101378.08
2023-05-20T10:24:29.389Z,101379.29
2023-05-20T10:29:45.487Z,101374.71
2023-05-20T10:34:49.335Z,101370.41
2023-05-20T10:39:51.047Z,101364.84
2023-05-20T10:44:52.934Z,101356.46
2023-05-20T10:49:54.599Z,101347.83
2023-05-20T10:54:58.304Z,101343.31
2023-05-20T11:00:01.288Z,101348.73
2023-05-20T11:05:04.780Z,101348.27
2023-05-20T11:10:09.833Z,101337.83
2023-05-20T11:15:13.251Z,101328.26
2023-05-20T11:20:14.857Z,101325.44
2023-05-20T11:25:17.631Z,101319.27
2023-05-20T11:30:20.594Z,101319.96
2023-05-20T11:35:24.024Z,101321.46
2023-05-20T11:40:30.565Z,101317.46
2023-05-20T11:45:46.075Z,101315.95
2023-05-20T11:50:49.022Z,101318.85
2023-05-20T11:55:56.055Z,101318.73
2023-05-20T12:01:05.779Z,101311.02
2023-05-20T12:06:20.073Z,101312.54
2023-05-20T12:11:22.040Z,101304.81
2023-05-20T12:16:23.720Z,101303.98
2023-05-20T12:21:25.587Z,101303.92
2023-05-20T12:26:29.083Z,101297.77
2023-05-20T12:31:33.820Z,101299.38
2023-05-20T12:36:37.883Z,101296.20
2023-05-20T12:41:39.616Z,101286.05
2023-05-20T12:46:41.238Z,101283.06
2023-05-20T12:51:42.833Z,101283.77
2023-05-20T12:56:47.483Z,101279.82
2023-05-20T13:01:49.068Z,101278.36
2023-05-20T13:06:50.820Z,101267.17
2023-05-20T13:11:52.444Z,101256.98
2023-05-20T13:16:55.189Z,101249.98
2023-05-20T13:21:57.291Z,101256.98
2023-05-20T13:26:59.053Z,101257.52
2023-05-20T13:32:02.113Z,101255.73
2023-05-20T13:37:03.897Z,101254.95
2023-05-20T13:42:06.340Z,101254.00
2023-05-20T13:47:07.999Z,101244.90
2023-05-20T13:52:09.747Z,101238.98
2023-05-20T13:57:11.526Z,101238.23
2023-05-20T14:02:13.431Z,101239.34
2023-05-20T14:07:15.331Z,101238.07
2023-05-20T14:12:16.872Z,101232.23
2023-05-20T14:17:18.733Z,101223.10
2023-05-20T14:22:20.368Z,101215.63
2023-05-20T14:27:21.965Z,101209.52
2023-05-20T14:32:24.193Z,101207.80
2023-05-20T14:37:28.001Z,101207.73
2023-05-20T14:42:29.582Z,101206.48
2023-05-20T14:47:31.183Z,101204.12
2023-05-20T14:52:32.918Z,101205.98
2023-05-20T14:57:34.479Z,101203.31
2023-05-20T15:02:36.378Z,101200.77
2023-05-20T15:07:38.500Z,101196.41
2023-05-20T15:12:40.387Z,101192.32
2023-05-20T15:17:41.885Z,101188.89
2023-05-20T15:22:47.953Z,101187.15
2023-05-20T15:27:49.590Z,101185.16
2023-05-20T15:32:51.307Z,101190.53
2023-05-20T15:37:53.143Z,101181.79
2023-05-20T15:42:54.805Z,101171.95
2023-05-20T15:47:56.650Z,101171.77
2023-05-20T15:52:58.306Z,101169.66
2023-05-20T15:57:59.944Z,101168.57
2023-05-20T16:03:01.793Z,101169.51
2023-05-20T16:08:03.295Z,101173.80
2023-05-20T16:13:04.854Z,101171.20
2023-05-20T16:18:06.509Z,101168.13
2023-05-20T16:23:08.916Z,101167.63
2023-05-20T16:28:10.507Z,101172.10
2023-05-20T16:33:13.390Z,101180.36
2023-05-20T16:38:15.059Z,101183.27
2023-05-20T16:43:16.585Z,101182.56
2023-05-20T16:48:18.278Z,101183.82
2023-05-20T16:53:19.963Z,101190.84
2023-05-20T16:58:21.593Z,101194.63
2023-05-20T17:03:23.314Z,101195.98
2023-05-20T17:08:24.883Z,101201.26
2023-05-20T17:13:26.476Z,101197.16
2023-05-20T17:18:28.008Z,101199.11
2023-05-20T17:23:29.526Z,101201.34
2023-05-20T17:28:31.057Z,101204.46
2023-05-20T17:33:32.728Z,101208.73
2023-05-20T17:38:34.377Z,101206.33
2023-05-20T17:43:35.936Z,101206.39
2023-05-20T17:48:37.928Z,101212.11
2023-05-20T17:53:39.562Z,101217.75
2023-05-20T17:58:41.357Z,101217.30
2023-05-20T18:03:43.035Z,101215.56
2023-05-20T18:08:44.890Z,101214.94
2023-05-20T18:13:46.781Z,101218.02
2023-05-20T18:18:48.686Z,101219.67
2023-05-20T18:23:50.523Z,101225.61
2023-05-20T18:28:52.048Z,101226.58
2023-05-20T18:33:53.581Z,101225.73
2023-05-20T18:38:55.553Z,101229.00
2023-05-20T18:43:57.094Z,101231.87
2023-05-20T18:48:58.699Z,101233.71
2023-05-20T18:54:00.578Z,101233.40
2023-05-20T18:59:02.144Z,101243.49
2023-05-20T19:04:03.693Z,101241.66
2023-05-20T19:09:05.233Z,101238.41
2023-05-20T19:14:16.676Z,101232.95
2023-05-20T19:19:19.098Z,101232.34
2023-05-20T19:24:20.746Z,101230.66
2023-05-20T19:29:22.275Z,101233.30
2023-05-20T19:34:24.755Z,101228.02
2023-05-20T19:39:27.102Z,101226.33
2023-05-20T19:44:28.765Z,101224.75
2023-05-20T19:49:32.798Z,101221.27
2023-05-20T19:54:34.372Z,101223.09
2023-05-20T19:59:38.035Z,101225.77
2023-05-20T20:04:39.903Z,101230.91
2023-05-20T20:09:41.501Z,101231.21
2023-05-20T20:14:43.088Z,101227.33
2023-05-20T20:19:48.080Z,101229.64
2023-05-20T20:24:50.167Z,101230.01
2023-05-20T20:29:51.722Z,101227.55
2023-05-20T20:34:53.824Z,101230.84
2023-05-20T20:39:55.615Z,101230.27
2023-05-20T20:44:57.143Z,101235.48
2023-05-20T20:49:58.715Z,101233.77
2023-05-20T20:55:00.416Z,101232.33
2023-05-20T21:00:08.067Z,101228.38
2023-05-20T21:05:10.714Z,101224.42
2023-05-20T21:10:13.128Z,101228.64
2023-05-20T21:15:15.139Z,101227.73
2023-05-20T21:20:20.858Z,101229.49
2023-05-20T21:25:23.176Z,101226.02
2023-05-20T21:30:31.384Z,101225.08
2023-05-20T21:35:33.097Z,101221.41
2023-05-20T21:40:34.880Z,101227.43
2023-05-20T21:45:36.611Z,101230.11
2023-05-20T21:50:38.384Z,101230.18
2023-05-20T21:55:40.532Z,101228.16
2023-05-20T22:00:42.826Z,101228.52
2023-05-20T22:05:46.220Z,101227.21
2023-05-20T22:10:48.371Z,101228.10
2023-05-20T22:15:50.104Z,101225.61
2023-05-20T22:20:51.778Z,101224.80
2023-05-20T22:25:53.615Z,101218.42
2023-05-20T22:30:55.660Z,101217.10
2023-05-20T22:35:58.187Z,101221.87
2023-05-20T22:40:59.736Z,101223.16
2023-05-20T22:46:01.294Z,101219.86
2023-05-20T22:51:03.904Z,101213.29
2023-05-20T22:56:06.313Z,101214.02
2023-05-20T23:01:08.259Z,101209.04
2023-05-20T23:06:09.966Z,101210.67
2023-05-20T23:11:11.481Z,101206.73
2023-05-20T23:16:13.334Z,101205.58
2023-05-20T23:21:15.058Z,101210.83
2023-05-20T23:26:16.591Z,101212.42
2023-05-20T23:31:18.730Z,101217.88
2023-05-20T23:36:22.990Z,101218.65
2023-05-20T23:41:24.628Z,101217.44
2023-05-20T23:46:26.214Z,101214.80
2023-05-20T23:51:28.060Z,101204.21
2023-05-20T23:56:29.587Z,101203.42
